Terminal Aerodrome Forecast
Issued by NWS

Home | Current Version | Previous Version | Text Only | Print | Product List | Glossary Off
Versions: 1 2 3 4 5 6 7 8 9 10 11 12 13 14 15 16 17

706
FTUS43 KMPX 010948 AAB
TAFAXN
TAF AMD
KAXN 010948Z 0110/0206 11006KT 3SM BR OVC005
      TEMPO 0110/0113 1/2SM FG VV002
     FM011700 13008KT P6SM SCT040=

USA.gov is the U.S. government's official web portal to all federal, state and local government web resources and services.